Time;durP1;ratioP1;P1;durP2;ratioP2;P2;SDS_P1;SDS_P2;PMS_P1;PMS_P2;Temp;Humidity;BMP_temperature;BMP_pressure;BME280_temperature;BME280_humidity;BME280_pressure;Samples;Min_cycle;Max_cycle;Signal;HPM_P1;HPM_P2
2021/07/17 00:02:05;;;;;;;6.05;3.50;;;;;;;;;;5073403;28;20032;-50
2021/07/17 00:04:31;;;;;;;4.88;3.22;;;;;;;;;;5074125;28;20086;-50
2021/07/17 00:06:57;;;;;;;7.20;4.40;;;;;;;;;;5074207;28;20032;-50
2021/07/17 00:09:24;;;;;;;6.72;4.15;;;;;;;;;;5074172;28;20112;-51
2021/07/17 00:11:50;;;;;;;8.30;4.10;;;;;;;;;;5073254;28;20438;-50
2021/07/17 00:14:16;;;;;;;12.00;4.43;;;;;;;;;;5073760;28;20454;-50
2021/07/17 00:16:42;;;;;;;4.38;3.50;;;;;;;;;;5073844;28;20059;-50
2021/07/17 00:19:09;;;;;;;9.05;4.78;;;;;;;;;;5073671;28;20029;-50
2021/07/17 00:21:35;;;;;;;6.30;4.10;;;;;;;;;;5072998;28;20036;-50
2021/07/17 00:24:01;;;;;;;7.47;4.25;;;;;;;;;;5073761;28;20062;-50
2021/07/17 00:26:27;;;;;;;9.20;4.88;;;;;;;;;;5073698;28;20020;-50
2021/07/17 00:28:53;;;;;;;6.97;4.60;;;;;;;;;;5073787;28;20095;-50
2021/07/17 00:31:19;;;;;;;9.55;4.18;;;;;;;;;;5072973;28;20033;-52
2021/07/17 00:33:45;;;;;;;7.28;4.70;;;;;;;;;;5073360;28;20032;-51
2021/07/17 00:36:11;;;;;;;11.27;5.45;;;;;;;;;;5073828;28;20357;-50
2021/07/17 00:38:37;;;;;;;9.35;5.05;;;;;;;;;;5073766;28;20024;-50
2021/07/17 00:41:03;;;;;;;14.13;5.03;;;;;;;;;;5073282;28;20051;-50
2021/07/17 00:43:29;;;;;;;9.13;5.20;;;;;;;;;;5071380;28;20033;-50
2021/07/17 00:45:55;;;;;;;8.15;4.97;;;;;;;;;;5073187;28;20031;-50
2021/07/17 00:48:24;;;;;;;9.13;5.28;;;;;;;;;;5073295;28;20062;-50
2021/07/17 00:50:51;;;;;;;7.50;4.82;;;;;;;;;;5072556;28;20519;-50
2021/07/17 00:53:17;;;;;;;6.72;4.22;;;;;;;;;;5073404;28;20466;-50
2021/07/17 00:55:45;;;;;;;12.15;4.93;;;;;;;;;;5073115;28;20092;-50
2021/07/17 00:58:13;;;;;;;8.95;4.85;;;;;;;;;;5072573;28;20025;-51
2021/07/17 01:00:39;;;;;;;9.27;4.55;;;;;;;;;;5072375;28;20454;-51
2021/07/17 01:03:07;;;;;;;6.97;4.90;;;;;;;;;;5073005;28;20361;-50
2021/07/17 01:05:33;;;;;;;8.40;4.78;;;;;;;;;;5073396;28;20028;-50
2021/07/17 01:07:59;;;;;;;8.02;5.03;;;;;;;;;;5072948;28;20025;-50
2021/07/17 01:10:25;;;;;;;8.90;5.22;;;;;;;;;;5073250;28;20074;-50
2021/07/17 01:12:52;;;;;;;6.68;4.88;;;;;;;;;;5071722;28;20024;-50
2021/07/17 01:15:19;;;;;;;8.23;5.03;;;;;;;;;;5072837;28;20442;-50
2021/07/17 01:17:45;;;;;;;8.15;4.68;;;;;;;;;;5072886;28;20025;-50
2021/07/17 01:20:12;;;;;;;8.68;4.90;;;;;;;;;;5073131;28;20103;-50
2021/07/17 01:22:39;;;;;;;8.82;5.20;;;;;;;;;;5072594;28;20036;-50
2021/07/17 01:25:07;;;;;;;9.73;5.35;;;;;;;;;;5072675;28;20073;-51
2021/07/17 01:27:33;;;;;;;9.00;5.28;;;;;;;;;;5072633;28;21119;-50
2021/07/17 01:29:59;;;;;;;9.23;5.32;;;;;;;;;;5072556;28;20067;-50
2021/07/17 01:32:25;;;;;;;8.32;5.25;;;;;;;;;;5072215;28;20043;-50
2021/07/17 01:34:51;;;;;;;9.93;4.93;;;;;;;;;;5072946;28;20020;-50
2021/07/17 01:37:17;;;;;;;8.85;4.88;;;;;;;;;;5072630;28;20021;-50
2021/07/17 01:39:43;;;;;;;8.07;5.20;;;;;;;;;;5072537;28;20028;-50
2021/07/17 01:42:09;;;;;;;8.85;5.20;;;;;;;;;;5071841;28;20036;-50
2021/07/17 01:44:43;;;;;;;9.60;5.65;;;;;;;;;;5072813;28;20041;-50
2021/07/17 01:47:09;;;;;;;9.70;5.60;;;;;;;;;;5071643;28;20016;-51
2021/07/17 01:49:35;;;;;;;11.27;5.68;;;;;;;;;;5072503;28;20029;-50
2021/07/17 01:52:01;;;;;;;8.00;5.18;;;;;;;;;;5071731;28;20469;-50
2021/07/17 01:54:31;;;;;;;8.45;5.50;;;;;;;;;;5072387;28;20442;-51
2021/07/17 01:56:57;;;;;;;11.70;6.20;;;;;;;;;;5072641;28;20131;-51
2021/07/17 01:59:23;;;;;;;10.15;6.00;;;;;;;;;;5072353;28;20458;-50
2021/07/17 02:01:49;;;;;;;11.70;5.85;;;;;;;;;;5071987;28;20331;-50
2021/07/17 02:04:15;;;;;;;9.18;5.47;;;;;;;;;;5072461;28;20205;-50
2021/07/17 02:06:41;;;;;;;9.23;5.90;;;;;;;;;;5072634;28;20042;-50
2021/07/17 02:09:07;;;;;;;11.75;6.18;;;;;;;;;;5071948;28;20032;-50
2021/07/17 02:11:33;;;;;;;9.38;5.53;;;;;;;;;;5072085;28;20056;-50
2021/07/17 02:13:59;;;;;;;11.32;5.25;;;;;;;;;;5072327;28;20025;-51
2021/07/17 02:16:25;;;;;;;9.45;5.40;;;;;;;;;;5072339;28;20335;-50
2021/07/17 02:18:51;;;;;;;9.85;5.22;;;;;;;;;;5071831;28;20434;-50
2021/07/17 02:21:17;;;;;;;12.27;5.55;;;;;;;;;;5076457;28;20036;-51
2021/07/17 02:23:43;;;;;;;9.63;5.90;;;;;;;;;;5092375;28;20468;-50
2021/07/17 02:26:09;;;;;;;9.35;5.70;;;;;;;;;;5092214;28;20020;-50
2021/07/17 02:28:36;;;;;;;13.48;6.40;;;;;;;;;;5092271;28;20405;-51
2021/07/17 02:31:03;;;;;;;9.05;5.20;;;;;;;;;;5091506;28;20350;-51
2021/07/17 02:33:29;;;;;;;14.35;7.55;;;;;;;;;;5090830;28;20024;-50
2021/07/17 02:35:55;;;;;;;12.38;6.20;;;;;;;;;;5092559;28;20016;-50
2021/07/17 02:38:21;;;;;;;12.38;6.70;;;;;;;;;;5092301;28;20063;-50
2021/07/17 02:40:47;;;;;;;11.70;6.10;;;;;;;;;;5090919;28;20032;-50
2021/07/17 02:43:13;;;;;;;11.38;5.90;;;;;;;;;;5095372;28;20032;-51
2021/07/17 02:45:39;;;;;;;12.57;5.38;;;;;;;;;;5095840;28;20028;-50
2021/07/17 02:48:05;;;;;;;9.73;6.28;;;;;;;;;;5095747;28;20077;-50
2021/07/17 02:50:31;;;;;;;20.92;7.07;;;;;;;;;;5086770;28;20021;-50
2021/07/17 02:52:57;;;;;;;11.57;5.88;;;;;;;;;;5075511;28;20124;-50
2021/07/17 02:55:23;;;;;;;13.18;6.15;;;;;;;;;;5075144;28;20060;-50
2021/07/17 02:57:49;;;;;;;9.50;6.78;;;;;;;;;;5075550;28;20028;-51
2021/07/17 03:00:16;;;;;;;8.82;5.38;;;;;;;;;;5075097;28;20035;-50
2021/07/17 03:02:42;;;;;;;11.02;6.72;;;;;;;;;;5074790;28;20192;-51
2021/07/17 03:05:08;;;;;;;10.93;6.28;;;;;;;;;;5087892;28;20028;-50
2021/07/17 03:07:34;;;;;;;15.57;5.88;;;;;;;;;;5095651;28;20103;-51
2021/07/17 03:10:00;;;;;;;10.38;5.97;;;;;;;;;;5095284;28;20020;-50
2021/07/17 03:12:27;;;;;;;14.80;6.10;;;;;;;;;;5094455;28;20020;-50
2021/07/17 03:14:53;;;;;;;11.57;6.13;;;;;;;;;;5095702;28;20088;-51
2021/07/17 03:17:19;;;;;;;14.23;5.88;;;;;;;;;;5095353;28;20024;-51
2021/07/17 03:19:45;;;;;;;10.65;6.13;;;;;;;;;;5089276;28;20090;-51
2021/07/17 03:22:11;;;;;;;9.18;5.85;;;;;;;;;;5083644;28;20035;-51
2021/07/17 03:24:37;;;;;;;9.82;5.95;;;;;;;;;;5085408;28;20032;-50
2021/07/17 03:27:03;;;;;;;10.70;6.57;;;;;;;;;;5082935;28;20024;-50
2021/07/17 03:29:29;;;;;;;11.90;6.25;;;;;;;;;;5085530;28;20048;-51
2021/07/17 03:31:55;;;;;;;15.35;6.07;;;;;;;;;;5082257;28;20434;-51
2021/07/17 03:34:21;;;;;;;12.25;6.32;;;;;;;;;;5084022;28;20024;-50
2021/07/17 03:36:47;;;;;;;10.35;5.85;;;;;;;;;;5092240;28;20429;-51
2021/07/17 03:39:13;;;;;;;14.05;6.22;;;;;;;;;;5094661;28;20038;-51
2021/07/17 03:41:39;;;;;;;14.02;6.45;;;;;;;;;;5094284;28;20024;-50
2021/07/17 03:44:10;;;;;;;13.85;6.75;;;;;;;;;;5095316;28;20074;-50
2021/07/17 03:46:36;;;;;;;11.30;6.10;;;;;;;;;;5094743;28;20106;-50
2021/07/17 03:49:02;;;;;;;13.57;6.38;;;;;;;;;;5094923;28;20307;-50
2021/07/17 03:51:28;;;;;;;9.57;6.05;;;;;;;;;;5093303;28;20024;-51
2021/07/17 03:53:54;;;;;;;12.82;6.57;;;;;;;;;;5094380;28;20533;-51
2021/07/17 03:56:20;;;;;;;25.30;6.55;;;;;;;;;;5094611;28;20099;-51
2021/07/17 03:58:46;;;;;;;13.30;6.95;;;;;;;;;;5094771;28;20326;-50
2021/07/17 04:01:12;;;;;;;13.45;6.50;;;;;;;;;;5093411;28;20123;-50
2021/07/17 04:03:38;;;;;;;10.50;5.60;;;;;;;;;;5094624;28;20028;-51
2021/07/17 04:06:04;;;;;;;7.97;5.53;;;;;;;;;;5085208;28;20529;-51
2021/07/17 04:08:30;;;;;;;13.48;6.53;;;;;;;;;;5088626;28;20071;-50
2021/07/17 04:10:56;;;;;;;15.32;6.85;;;;;;;;;;5073688;28;20017;-51
2021/07/17 04:13:22;;;;;;;11.25;6.88;;;;;;;;;;5074320;28;20100;-51
2021/07/17 04:15:48;;;;;;;14.13;7.00;;;;;;;;;;5074189;28;20510;-50
2021/07/17 04:18:14;;;;;;;13.32;6.80;;;;;;;;;;5073995;28;20020;-51
2021/07/17 04:20:40;;;;;;;10.35;7.05;;;;;;;;;;5072708;28;20362;-51
2021/07/17 04:23:06;;;;;;;12.52;7.03;;;;;;;;;;5073910;28;20268;-50
2021/07/17 04:25:32;;;;;;;14.45;6.93;;;;;;;;;;5074199;28;20428;-50
2021/07/17 04:27:58;;;;;;;13.13;6.55;;;;;;;;;;5073514;28;20111;-50
2021/07/17 04:30:24;;;;;;;12.43;7.45;;;;;;;;;;5073812;28;20124;-50
2021/07/17 04:32:50;;;;;;;12.40;7.05;;;;;;;;;;5072754;28;20358;-51
2021/07/17 04:35:16;;;;;;;16.42;8.48;;;;;;;;;;5073695;28;20035;-51
2021/07/17 04:37:42;;;;;;;21.20;7.25;;;;;;;;;;5073727;28;20024;-50
2021/07/17 04:40:09;;;;;;;19.65;7.38;;;;;;;;;;5073664;28;20020;-51
2021/07/17 04:42:34;;;;;;;14.23;7.25;;;;;;;;;;5071990;28;20016;-50
2021/07/17 04:45:00;;;;;;;11.80;6.78;;;;;;;;;;5073928;28;20078;-51
2021/07/17 04:47:26;;;;;;;11.98;6.40;;;;;;;;;;5073248;28;20342;-51
2021/07/17 04:49:52;;;;;;;13.43;6.93;;;;;;;;;;5073136;28;20111;-50
2021/07/17 04:52:18;;;;;;;13.20;6.78;;;;;;;;;;5072646;28;20602;-50
2021/07/17 04:54:44;;;;;;;12.60;6.82;;;;;;;;;;5073396;28;20024;-51
2021/07/17 04:57:10;;;;;;;11.77;6.35;;;;;;;;;;5073136;28;20343;-51
2021/07/17 04:59:36;;;;;;;14.98;6.70;;;;;;;;;;5073304;28;20214;-51
2021/07/17 05:02:03;;;;;;;13.50;7.18;;;;;;;;;;5080488;28;20024;-51
2021/07/17 05:04:29;;;;;;;12.38;6.63;;;;;;;;;;5082841;28;20055;-51
2021/07/17 05:06:55;;;;;;;15.55;7.72;;;;;;;;;;5081857;28;20017;-50
2021/07/17 05:09:21;;;;;;;16.60;6.80;;;;;;;;;;5083294;28;20361;-51
2021/07/17 05:11:47;;;;;;;18.35;6.60;;;;;;;;;;5082461;28;20017;-51
2021/07/17 05:14:13;;;;;;;14.77;6.25;;;;;;;;;;5081535;28;20511;-51
2021/07/17 05:16:39;;;;;;;21.20;8.63;;;;;;;;;;5083808;28;20043;-50
2021/07/17 05:19:05;;;;;;;14.68;7.10;;;;;;;;;;5081661;28;20098;-50
2021/07/17 05:21:31;;;;;;;18.70;7.93;;;;;;;;;;5081222;28;20031;-50
2021/07/17 05:23:58;;;;;;;14.55;6.45;;;;;;;;;;5075233;28;20135;-50
2021/07/17 05:26:24;;;;;;;16.15;6.85;;;;;;;;;;5081940;28;20434;-50
2021/07/17 05:28:50;;;;;;;13.98;7.05;;;;;;;;;;5088376;28;20395;-50
2021/07/17 05:31:18;;;;;;;13.57;6.50;;;;;;;;;;5092450;28;20020;-50
2021/07/17 05:33:44;;;;;;;15.27;6.40;;;;;;;;;;5092832;28;20085;-50
2021/07/17 05:36:10;;;;;;;12.68;6.10;;;;;;;;;;5093264;28;20027;-50
2021/07/17 05:38:36;;;;;;;19.25;6.85;;;;;;;;;;5090153;28;20039;-50
2021/07/17 05:41:02;;;;;;;14.70;6.63;;;;;;;;;;5072078;28;20024;-50
2021/07/17 05:43:28;;;;;;;12.20;6.38;;;;;;;;;;5072929;28;20063;-50
2021/07/17 05:45:54;;;;;;;13.82;7.30;;;;;;;;;;5080096;28;20062;-50
2021/07/17 05:48:21;;;;;;;11.73;5.97;;;;;;;;;;5091561;28;20062;-50
2021/07/17 05:50:48;;;;;;;14.23;5.50;;;;;;;;;;5091316;28;20032;-51
2021/07/17 05:53:14;;;;;;;11.77;6.15;;;;;;;;;;5092798;28;20047;-50
2021/07/17 05:55:40;;;;;;;14.25;7.13;;;;;;;;;;5092848;28;20035;-50
2021/07/17 05:58:06;;;;;;;15.10;6.15;;;;;;;;;;5092968;28;20093;-50
2021/07/17 06:00:32;;;;;;;15.10;7.05;;;;;;;;;;5091794;28;20028;-51
2021/07/17 06:02:58;;;;;;;11.48;5.57;;;;;;;;;;5075576;28;20040;-50
2021/07/17 06:05:24;;;;;;;10.80;5.95;;;;;;;;;;5072580;28;20031;-50
2021/07/17 06:07:50;;;;;;;11.95;7.30;;;;;;;;;;5070983;28;20032;-50
2021/07/17 06:10:16;;;;;;;14.35;6.90;;;;;;;;;;5071290;28;20481;-51
2021/07/17 06:12:42;;;;;;;11.73;6.07;;;;;;;;;;5071883;28;20031;-51
2021/07/17 06:15:08;;;;;;;11.38;5.80;;;;;;;;;;5072511;28;20354;-50
2021/07/17 06:17:34;;;;;;;11.93;5.88;;;;;;;;;;5076005;28;20028;-51
2021/07/17 06:20:00;;;;;;;13.23;6.53;;;;;;;;;;5075820;28;20027;-51
2021/07/17 06:22:26;;;;;;;12.15;5.93;;;;;;;;;;5075358;28;20032;-50
2021/07/17 06:24:52;;;;;;;11.15;6.00;;;;;;;;;;5076326;28;20036;-50
2021/07/17 06:27:18;;;;;;;13.00;5.72;;;;;;;;;;5076209;28;20013;-50
2021/07/17 06:29:44;;;;;;;13.13;5.60;;;;;;;;;;5075841;28;20513;-50
2021/07/17 06:32:10;;;;;;;13.70;6.00;;;;;;;;;;5075522;28;20104;-50
2021/07/17 06:34:36;;;;;;;11.45;5.72;;;;;;;;;;5075861;28;20031;-51
2021/07/17 06:37:02;;;;;;;12.82;5.88;;;;;;;;;;5076221;28;20024;-50
2021/07/17 06:39:28;;;;;;;15.60;6.18;;;;;;;;;;5075762;28;20439;-50
2021/07/17 06:41:54;;;;;;;13.77;6.40;;;;;;;;;;5075079;28;20031;-51
2021/07/17 06:44:20;;;;;;;11.73;5.22;;;;;;;;;;5073844;28;20067;-50
2021/07/17 06:46:46;;;;;;;12.93;5.80;;;;;;;;;;5075479;28;20051;-50
2021/07/17 06:49:12;;;;;;;12.15;5.97;;;;;;;;;;5075647;28;20028;-50
2021/07/17 06:51:38;;;;;;;14.02;6.05;;;;;;;;;;5074858;28;20449;-50
2021/07/17 06:54:04;;;;;;;12.20;5.50;;;;;;;;;;5075593;28;20017;-51
2021/07/17 06:56:30;;;;;;;15.00;6.35;;;;;;;;;;5075423;28;20556;-50
2021/07/17 06:58:57;;;;;;;11.68;5.47;;;;;;;;;;5075640;28;20127;-50
2021/07/17 07:01:23;;;;;;;13.95;6.57;;;;;;;;;;5074888;28;20104;-50
2021/07/17 07:03:49;;;;;;;9.40;4.68;;;;;;;;;;5075116;28;20032;-50
2021/07/17 07:06:15;;;;;;;10.00;4.97;;;;;;;;;;5075712;28;20025;-50
2021/07/17 07:08:41;;;;;;;8.70;4.45;;;;;;;;;;5074873;28;20541;-50
2021/07/17 07:11:07;;;;;;;8.43;4.18;;;;;;;;;;5074700;28;20099;-51
2021/07/17 07:13:33;;;;;;;10.82;5.32;;;;;;;;;;5075419;28;20077;-51
2021/07/17 07:15:59;;;;;;;11.52;5.28;;;;;;;;;;5075623;28;20025;-51
2021/07/17 07:18:25;;;;;;;9.35;4.43;;;;;;;;;;5075167;28;20035;-51
2021/07/17 07:20:52;;;;;;;15.75;5.22;;;;;;;;;;5073904;28;20029;-50
2021/07/17 07:23:18;;;;;;;8.32;4.40;;;;;;;;;;5075288;28;20114;-51
2021/07/17 07:25:44;;;;;;;6.75;3.47;;;;;;;;;;5075249;28;20025;-50
2021/07/17 07:28:10;;;;;;;11.60;4.90;;;;;;;;;;5074168;28;20119;-50
2021/07/17 07:30:36;;;;;;;6.93;3.78;;;;;;;;;;5074138;28;20020;-51
2021/07/17 07:33:03;;;;;;;7.63;4.25;;;;;;;;;;5075227;28;20363;-50
2021/07/17 07:35:29;;;;;;;8.30;3.83;;;;;;;;;;5074661;28;20060;-50
2021/07/17 07:37:56;;;;;;;6.85;3.67;;;;;;;;;;5074560;28;20031;-50
2021/07/17 07:40:23;;;;;;;6.47;4.10;;;;;;;;;;5074969;28;20056;-50
2021/07/17 07:42:49;;;;;;;7.85;4.55;;;;;;;;;;5074254;28;20075;-50
2021/07/17 07:45:16;;;;;;;9.50;4.15;;;;;;;;;;5074613;28;20055;-50
2021/07/17 07:47:42;;;;;;;11.60;4.07;;;;;;;;;;5074419;28;20131;-50
2021/07/17 07:50:08;;;;;;;10.95;4.47;;;;;;;;;;5073905;28;20457;-51
2021/07/17 07:52:35;;;;;;;12.55;4.82;;;;;;;;;;5073059;28;20035;-50
2021/07/17 07:55:01;;;;;;;11.65;4.50;;;;;;;;;;5074636;28;20028;-50
2021/07/17 07:57:27;;;;;;;9.30;4.25;;;;;;;;;;5077085;28;20327;-50
2021/07/17 07:59:53;;;;;;;6.80;4.20;;;;;;;;;;5074444;28;20116;-50
2021/07/17 08:02:19;;;;;;;6.15;3.92;;;;;;;;;;5079166;28;20103;-50
2021/07/17 08:04:45;;;;;;;11.20;3.92;;;;;;;;;;5092847;28;20029;-50
2021/07/17 08:07:11;;;;;;;8.40;4.18;;;;;;;;;;5093813;28;20035;-51
2021/07/17 08:09:37;;;;;;;9.10;4.75;;;;;;;;;;5086290;28;20024;-51
2021/07/17 08:12:03;;;;;;;7.75;3.85;;;;;;;;;;5078624;28;20115;-51
2021/07/17 08:14:29;;;;;;;19.40;3.95;;;;;;;;;;5083356;28;20032;-50
2021/07/17 08:16:55;;;;;;;7.75;4.13;;;;;;;;;;5081398;28;20024;-51
2021/07/17 08:19:21;;;;;;;8.77;4.32;;;;;;;;;;5076383;28;20024;-51
2021/07/17 08:21:47;;;;;;;8.82;4.53;;;;;;;;;;5091685;28;20081;-50
2021/07/17 08:24:13;;;;;;;9.25;5.10;;;;;;;;;;5093467;28;20052;-50
2021/07/17 08:26:40;;;;;;;11.07;4.90;;;;;;;;;;5093758;28;20467;-50
2021/07/17 08:29:06;;;;;;;12.73;4.57;;;;;;;;;;5093893;28;20028;-51
2021/07/17 08:31:32;;;;;;;8.65;4.30;;;;;;;;;;5092945;28;20031;-50
2021/07/17 08:33:59;;;;;;;8.63;4.35;;;;;;;;;;5094293;28;20020;-50
2021/07/17 08:36:25;;;;;;;8.07;4.32;;;;;;;;;;5093432;28;20024;-50
2021/07/17 08:38:51;;;;;;;8.73;4.55;;;;;;;;;;5093342;28;20433;-50
2021/07/17 08:41:21;;;;;;;11.52;6.03;;;;;;;;;;5092350;28;20492;-50
2021/07/17 08:43:49;;;;;;;14.07;5.30;;;;;;;;;;5093913;28;20472;-50
2021/07/17 08:46:14;;;;;;;10.18;5.15;;;;;;;;;;5093425;28;20028;-50
2021/07/17 08:48:41;;;;;;;9.85;4.20;;;;;;;;;;5093525;28;20031;-50
2021/07/17 08:51:07;;;;;;;11.77;5.22;;;;;;;;;;5092562;28;20074;-51
2021/07/17 08:53:34;;;;;;;8.38;4.55;;;;;;;;;;5093772;28;20032;-50
2021/07/17 08:56:00;;;;;;;13.07;4.78;;;;;;;;;;5093730;28;20020;-51
2021/07/17 08:58:26;;;;;;;13.23;5.32;;;;;;;;;;5093730;28;20031;-51
2021/07/17 09:00:52;;;;;;;9.57;4.90;;;;;;;;;;5092558;28;20107;-50
2021/07/17 09:03:19;;;;;;;12.35;3.97;;;;;;;;;;5093715;28;20039;-50
2021/07/17 09:05:45;;;;;;;9.07;4.38;;;;;;;;;;5093059;28;20186;-51
2021/07/17 09:08:12;;;;;;;8.25;3.50;;;;;;;;;;5093326;28;20031;-50
2021/07/17 09:10:42;;;;;;;9.38;4.25;;;;;;;;;;5092703;28;20035;-50
2021/07/17 09:13:17;;;;;;;9.00;4.05;;;;;;;;;;5093278;28;20020;-50
2021/07/17 09:15:49;;;;;;;8.10;4.93;;;;;;;;;;5093261;28;20027;-51
2021/07/17 09:18:16;;;;;;;7.85;4.70;;;;;;;;;;5092912;28;20289;-50
2021/07/17 09:21:14;;;;;;;7.82;3.63;;;;;;;;;;5092139;28;20450;-51
2021/07/17 09:23:45;;;;;;;7.90;3.92;;;;;;;;;;5070467;28;20068;-50
2021/07/17 09:26:11;;;;;;;6.85;3.65;;;;;;;;;;5070460;28;20024;-50
2021/07/17 09:28:37;;;;;;;7.32;4.10;;;;;;;;;;5069862;28;20028;-50
2021/07/17 09:31:05;;;;;;;10.88;4.78;;;;;;;;;;5069477;28;20016;-50
2021/07/17 09:33:31;;;;;;;9.10;4.68;;;;;;;;;;5070499;28;20032;-51
2021/07/17 09:35:58;;;;;;;6.57;3.70;;;;;;;;;;5070446;28;20028;-50
2021/07/17 09:38:25;;;;;;;8.13;3.92;;;;;;;;;;5070203;28;20025;-50
2021/07/17 09:40:51;;;;;;;8.05;4.25;;;;;;;;;;5068819;28;20047;-51
2021/07/17 09:43:31;;;;;;;11.15;4.82;;;;;;;;;;5069289;28;20036;-53
2021/07/17 09:45:58;;;;;;;7.90;4.53;;;;;;;;;;5070368;28;20041;-50
2021/07/17 09:48:33;;;;;;;8.00;4.78;;;;;;;;;;5069705;28;20028;-51
2021/07/17 09:51:01;;;;;;;8.32;4.57;;;;;;;;;;5057889;28;20100;-51
2021/07/17 09:53:36;;;;;;;10.50;4.30;;;;;;;;;;5053735;28;20083;-51
2021/07/17 09:56:06;;;;;;;9.27;4.10;;;;;;;;;;5054291;28;20053;-51
2021/07/17 09:58:32;;;;;;;8.40;5.30;;;;;;;;;;5058769;28;20041;-51
2021/07/17 10:01:11;;;;;;;6.75;4.63;;;;;;;;;;5074995;28;20115;-51
2021/07/17 10:03:39;;;;;;;8.45;4.38;;;;;;;;;;5075351;28;20039;-51
2021/07/17 10:06:05;;;;;;;10.80;4.95;;;;;;;;;;5076187;28;20025;-51
2021/07/17 10:08:34;;;;;;;7.78;4.38;;;;;;;;;;5076681;28;20032;-51
2021/07/17 10:11:01;;;;;;;7.53;4.40;;;;;;;;;;5080142;28;20413;-51
2021/07/17 10:13:27;;;;;;;10.10;5.07;;;;;;;;;;5079895;28;20111;-51
2021/07/17 10:15:53;;;;;;;7.32;4.38;;;;;;;;;;5091410;28;20016;-51
2021/07/17 10:18:25;;;;;;;8.23;4.13;;;;;;;;;;5096388;28;20438;-51
2021/07/17 10:20:54;;;;;;;8.32;4.70;;;;;;;;;;5095663;28;20024;-52
2021/07/17 10:23:20;;;;;;;9.32;4.20;;;;;;;;;;5096867;28;20036;-51
2021/07/17 10:25:47;;;;;;;7.80;4.40;;;;;;;;;;5096303;28;20020;-51
2021/07/17 10:28:13;;;;;;;9.82;4.38;;;;;;;;;;5096735;28;20028;-51
2021/07/17 10:30:39;;;;;;;8.45;4.57;;;;;;;;;;5095030;28;20461;-51
2021/07/17 10:33:06;;;;;;;15.70;4.53;;;;;;;;;;5096086;28;20046;-51
2021/07/17 10:35:34;;;;;;;7.38;4.32;;;;;;;;;;5096729;28;20031;-51
2021/07/17 10:38:04;;;;;;;7.95;4.22;;;;;;;;;;5096422;28;20074;-51
2021/07/17 10:40:31;;;;;;;9.60;4.82;;;;;;;;;;5095757;28;20039;-51
2021/07/17 10:42:59;;;;;;;9.57;5.18;;;;;;;;;;5095885;28;20056;-51
2021/07/17 10:45:44;;;;;;;10.90;5.38;;;;;;;;;;5096268;28;20028;-51
2021/07/17 10:48:22;;;;;;;8.30;5.18;;;;;;;;;;5096261;28;20044;-51
2021/07/17 10:50:48;;;;;;;9.27;5.22;;;;;;;;;;5094752;28;20031;-51
2021/07/17 10:53:32;;;;;;;18.60;6.00;;;;;;;;;;5096140;28;20028;-51
2021/07/17 10:56:18;;;;;;;6.80;4.53;;;;;;;;;;5095153;28;20476;-51
2021/07/17 10:58:44;;;;;;;10.80;4.85;;;;;;;;;;5095753;28;20354;-51
2021/07/17 11:01:11;;;;;;;12.93;5.60;;;;;;;;;;5095165;28;20487;-51
2021/07/17 11:03:36;;;;;;;11.05;4.88;;;;;;;;;;5094336;28;20043;-51
2021/07/17 11:06:21;;;;;;;11.05;5.65;;;;;;;;;;5095213;28;20028;-51
2021/07/17 11:08:47;;;;;;;12.00;5.40;;;;;;;;;;5095474;28;20370;-51
2021/07/17 11:11:34;;;;;;;8.73;4.97;;;;;;;;;;5095171;28;20024;-52
2021/07/17 11:14:24;;;;;;;7.63;4.88;;;;;;;;;;5096022;28;20093;-51
2021/07/17 11:16:51;;;;;;;9.05;4.70;;;;;;;;;;5091955;28;20043;-51
2021/07/17 11:19:18;;;;;;;10.63;5.25;;;;;;;;;;5095556;28;20032;-51
2021/07/17 11:21:47;;;;;;;8.98;4.63;;;;;;;;;;5092824;28;20036;-51
2021/07/17 11:24:13;;;;;;;11.80;4.53;;;;;;;;;;5075350;28;20086;-51
2021/07/17 11:26:39;;;;;;;7.18;4.28;;;;;;;;;;5077464;28;20319;-51
2021/07/17 11:29:12;;;;;;;11.38;5.22;;;;;;;;;;5093754;28;20470;-51
2021/07/17 11:31:39;;;;;;;15.55;4.53;;;;;;;;;;5093818;28;20055;-51
2021/07/17 11:34:17;;;;;;;6.88;4.40;;;;;;;;;;5095041;28;20016;-51
2021/07/17 11:36:45;;;;;;;11.43;5.03;;;;;;;;;;5082577;28;20035;-51
2021/07/17 11:39:12;;;;;;;10.40;5.40;;;;;;;;;;5072505;28;20028;-51
2021/07/17 11:41:39;;;;;;;10.48;5.68;;;;;;;;;;5071177;28;20036;-51
2021/07/17 11:44:05;;;;;;;10.88;5.13;;;;;;;;;;5072971;28;20424;-51
2021/07/17 11:46:31;;;;;;;11.27;5.45;;;;;;;;;;5074190;28;20017;-51
2021/07/17 11:49:07;;;;;;;12.05;5.55;;;;;;;;;;5074163;28;20020;-51
2021/07/17 11:51:34;;;;;;;9.85;5.35;;;;;;;;;;5073184;28;20095;-51
2021/07/17 11:54:01;;;;;;;12.88;4.97;;;;;;;;;;5074318;28;20025;-51
2021/07/17 11:56:27;;;;;;;10.43;5.20;;;;;;;;;;5073834;28;20078;-51
2021/07/17 11:59:14;;;;;;;10.38;6.20;;;;;;;;;;5073787;28;20542;-51
2021/07/17 12:01:59;;;;;;;10.45;5.82;;;;;;;;;;5093607;28;20505;-51
2021/07/17 12:04:28;;;;;;;12.90;6.03;;;;;;;;;;5094752;28;20035;-51
2021/07/17 12:07:01;;;;;;;12.98;6.47;;;;;;;;;;5078722;28;20032;-51
2021/07/17 12:09:36;;;;;;;14.98;5.57;;;;;;;;;;5083662;28;20030;-51
2021/07/17 12:12:20;;;;;;;10.35;5.40;;;;;;;;;;5081968;28;20016;-51
2021/07/17 12:14:47;;;;;;;15.38;6.15;;;;;;;;;;5082678;28;20020;-51
2021/07/17 12:17:20;;;;;;;18.58;6.53;;;;;;;;;;5080146;28;20027;-51
2021/07/17 12:19:46;;;;;;;15.57;6.63;;;;;;;;;;5081294;28;20453;-51
2021/07/17 12:22:18;;;;;;;16.85;6.80;;;;;;;;;;5083239;28;20114;-52
2021/07/17 12:24:44;;;;;;;15.18;6.97;;;;;;;;;;5081225;28;20032;-51
2021/07/17 12:27:11;;;;;;;20.35;7.40;;;;;;;;;;5080570;28;20354;-51
2021/07/17 12:29:37;;;;;;;12.05;6.38;;;;;;;;;;5090502;28;20432;-51
2021/07/17 12:32:04;;;;;;;10.40;5.88;;;;;;;;;;5081141;28;20406;-52
2021/07/17 12:34:30;;;;;;;13.43;6.10;;;;;;;;;;5083460;28;20027;-51
2021/07/17 12:36:56;;;;;;;11.13;6.43;;;;;;;;;;5084131;28;20024;-51
2021/07/17 12:39:23;;;;;;;16.23;7.10;;;;;;;;;;5083632;28;20021;-51
2021/07/17 12:41:50;;;;;;;12.07;6.72;;;;;;;;;;5081602;28;20031;-51
2021/07/17 12:44:16;;;;;;;17.90;7.32;;;;;;;;;;5083224;28;20301;-51
2021/07/17 12:46:43;;;;;;;15.40;6.30;;;;;;;;;;5084090;28;20054;-51
2021/07/17 12:49:14;;;;;;;11.23;5.80;;;;;;;;;;5081927;28;20078;-51
2021/07/17 12:51:44;;;;;;;14.23;5.53;;;;;;;;;;5081187;28;20023;-51
2021/07/17 12:54:10;;;;;;;;;;;;;;;;;;5082410;28;20024;-51
2021/07/17 12:56:42;;;;;;;13.40;5.75;;;;;;;;;;5083693;28;19954;-51
2021/07/17 12:59:10;;;;;;;14.48;7.00;;;;;;;;;;5088675;28;20440;-51
2021/07/17 13:01:36;;;;;;;13.10;7.78;;;;;;;;;;5093069;28;20020;-51
2021/07/17 13:04:02;;;;;;;15.40;7.22;;;;;;;;;;5091161;28;20032;-52
2021/07/17 13:06:28;;;;;;;20.75;7.30;;;;;;;;;;5092652;28;20103;-51
2021/07/17 13:08:56;;;;;;;17.60;8.38;;;;;;;;;;5093073;28;20031;-51
2021/07/17 13:11:25;;;;;;;21.40;10.48;;;;;;;;;;5092987;28;20024;-51
2021/07/17 13:13:51;;;;;;;19.42;7.70;;;;;;;;;;5092914;28;20103;-51
2021/07/17 13:16:26;;;;;;;19.40;7.90;;;;;;;;;;5093589;28;20027;-51
2021/07/17 13:18:53;;;;;;;16.98;8.70;;;;;;;;;;5091239;28;20020;-51
2021/07/17 13:21:19;;;;;;;16.80;8.73;;;;;;;;;;5091983;28;20036;-51
2021/07/17 13:23:50;;;;;;;20.75;9.50;;;;;;;;;;5089170;28;20450;-51
2021/07/17 13:26:18;;;;;;;17.95;8.85;;;;;;;;;;5092688;28;20020;-52
2021/07/17 13:28:44;;;;;;;27.33;8.15;;;;;;;;;;5092708;28;20039;-51
2021/07/17 13:31:36;;;;;;;21.55;9.18;;;;;;;;;;5092167;28;20330;-52
2021/07/17 13:34:09;;;;;;;22.58;8.95;;;;;;;;;;5092375;28;20046;-52
2021/07/17 13:36:35;;;;;;;16.20;8.10;;;;;;;;;;5092582;28;20382;-51
2021/07/17 13:39:02;;;;;;;26.50;9.75;;;;;;;;;;5092994;28;20024;-51
2021/07/17 13:41:28;;;;;;;26.85;10.43;;;;;;;;;;5092081;28;20445;-51
2021/07/17 13:44:07;;;;;;;21.13;8.70;;;;;;;;;;5092503;28;20476;-51
2021/07/17 13:46:33;;;;;;;22.75;9.50;;;;;;;;;;5093531;28;20031;-51
2021/07/17 13:49:09;;;;;;;20.45;9.52;;;;;;;;;;5092857;28;20026;-50
2021/07/17 13:51:35;;;;;;;28.15;10.25;;;;;;;;;;5074343;28;20064;-51
2021/07/17 13:54:05;;;;;;;23.83;10.05;;;;;;;;;;5073025;28;20025;-51
2021/07/17 13:56:32;;;;;;;21.05;8.75;;;;;;;;;;5072598;28;20219;-50
2021/07/17 13:59:02;;;;;;;24.60;10.48;;;;;;;;;;5072415;28;20024;-50
2021/07/17 14:01:30;;;;;;;19.97;8.50;;;;;;;;;;5071491;28;20021;-51
2021/07/17 14:03:56;;;;;;;24.38;9.88;;;;;;;;;;5072363;28;20024;-51
2021/07/17 14:06:24;;;;;;;22.73;10.27;;;;;;;;;;5072689;28;20108;-51
2021/07/17 14:08:50;;;;;;;25.30;10.60;;;;;;;;;;5072370;28;20099;-50
2021/07/17 14:11:17;;;;;;;23.13;10.25;;;;;;;;;;5082020;28;20475;-51
2021/07/17 14:13:44;;;;;;;17.23;9.38;;;;;;;;;;5091912;28;20031;-50
2021/07/17 14:16:10;;;;;;;21.27;8.57;;;;;;;;;;5091838;28;20020;-51
2021/07/17 14:18:37;;;;;;;27.02;10.90;;;;;;;;;;5092694;28;20349;-50
2021/07/17 14:21:03;;;;;;;29.40;10.63;;;;;;;;;;5091569;28;20028;-50
2021/07/17 14:23:30;;;;;;;25.40;9.18;;;;;;;;;;5092617;28;20449;-50
2021/07/17 14:25:56;;;;;;;17.38;8.27;;;;;;;;;;5090170;28;20020;-49
2021/07/17 14:28:23;;;;;;;22.42;9.85;;;;;;;;;;5092024;28;20035;-50
2021/07/17 14:30:49;;;;;;;23.58;9.43;;;;;;;;;;5090153;28;20020;-49
2021/07/17 14:33:15;;;;;;;18.58;10.05;;;;;;;;;;5092261;28;20024;-50
2021/07/17 14:35:42;;;;;;;25.27;9.95;;;;;;;;;;5091715;28;20028;-50